createdAt,value
2024-01-24T14:12:51.339Z,96170.63
2024-01-24T14:20:16.005Z,96176.13
2024-01-24T14:33:27.107Z,96107.59
2024-01-24T14:39:49.960Z,96119.97
2024-01-24T14:51:23.048Z,96121.84
2024-01-24T14:57:34.180Z,96098.19
2024-01-24T15:03:53.705Z,96091.81
2024-01-24T15:10:12.222Z,96095.34
2024-01-24T15:16:31.238Z,96064.31
2024-01-24T15:22:51.777Z,96105.28
2024-01-24T15:29:10.535Z,96112.69
2024-01-24T15:35:29.261Z,96135.25
2024-01-24T15:41:47.696Z,96148.03
2024-01-24T15:52:38.354Z,96135.28
2024-01-24T15:58:56.405Z,96166.44
2024-01-24T16:05:23.541Z,96144.97
2024-01-24T16:11:42.869Z,96152.84
2024-01-24T16:18:01.392Z,96160.06
2024-01-24T16:24:11.949Z,96146.84
2024-01-24T16:30:40.199Z,96174.31
2024-01-24T16:36:58.556Z,96182.75
2024-01-24T16:43:06.720Z,96206.06
2024-01-24T16:53:56.181Z,96213.84
2024-01-24T17:00:14.743Z,96218.94
2024-01-24T17:06:22.689Z,96245.97
2024-01-24T17:12:41.076Z,96221.84
2024-01-24T17:18:59.858Z,96273.09
2024-01-24T17:25:22.188Z,96264.03
2024-01-24T17:31:42.307Z,96230.88
2024-01-24T17:38:09.068Z,96274.91
2024-01-24T17:44:27.125Z,96279.03
2024-01-24T17:55:07.801Z,96342.63
2024-01-24T18:01:17.286Z,96372.84
2024-01-24T18:07:36.165Z,96409.84
2024-01-24T18:13:54.862Z,96418.84
2024-01-24T18:20:03.398Z,96406.13
2024-01-24T18:26:22.295Z,96439.28
2024-01-24T18:32:40.403Z,96406.78
2024-01-24T18:38:48.695Z,96389.72
2024-01-24T18:45:09.413Z,96428.88
2024-01-24T18:55:45.018Z,96419.84
2024-01-24T19:02:03.574Z,96508.91
2024-01-24T19:08:12.441Z,96536.09
2024-01-24T19:14:30.590Z,96469.97
2024-01-24T19:20:48.772Z,96495.63
2024-01-24T19:26:57.099Z,96558.19
2024-01-24T19:33:15.633Z,96558.56
2024-01-24T19:39:33.577Z,96560.03
2024-01-24T19:45:42.090Z,96577.56
2024-01-24T19:56:06.727Z,96553.03
2024-01-24T20:02:25.299Z,96544.19
2024-01-24T20:08:43.568Z,96543.31
2024-01-24T20:15:02.272Z,96505.31
2024-01-24T20:21:21.129Z,96521.75
2024-01-24T20:27:39.737Z,96512.22
2024-01-24T20:33:57.747Z,96536.75
2024-01-24T20:40:16.203Z,96507.03
2024-01-24T20:46:34.813Z,96543.09
2024-01-24T20:57:10.018Z,96553.19
2024-01-24T21:03:28.884Z,96568.91
2024-01-24T21:09:48.193Z,96580.69
2024-01-24T21:16:06.770Z,96556.00
2024-01-24T21:22:15.197Z,96566.97
2024-01-24T21:28:33.672Z,96597.78
2024-01-24T21:34:52.503Z,96591.78
2024-01-24T21:41:02.517Z,96598.75
2024-01-24T21:47:21.090Z,96624.75
2024-01-24T21:57:59.699Z,96571.44
2024-01-24T22:04:18.216Z,96569.25
2024-01-24T22:10:36.138Z,96567.41
2024-01-24T22:17:03.315Z,96574.72
2024-01-24T22:23:21.446Z,96571.09
2024-01-24T22:29:40.631Z,96564.75
2024-01-24T22:35:59.155Z,96561.91
2024-01-24T22:42:07.554Z,96576.72
2024-01-24T22:48:26.247Z,96589.69
2024-01-24T22:59:42.168Z,96619.16
2024-01-24T23:05:50.502Z,96619.16
2024-01-24T23:12:10.507Z,96602.63
2024-01-24T23:18:29.086Z,96612.63
2024-01-24T23:24:49.570Z,96574.69
2024-01-24T23:31:08.177Z,96583.94
2024-01-24T23:37:26.598Z,96593.47
2024-01-24T23:43:44.828Z,96602.75
2024-01-24T23:50:17.638Z,96597.84
